»·PEaware :: BOE561 KSFO-KLGB

BOE561 :: KSFO-KLGB

FLIGHT INFORMATION

Flight Status: Arrived
Operator:
Boeing Commercial Airplane Group
More flights by this operator :: More flights under this callsign
Pilot: Ben F. (2808)
Aircraft: BOEING 737-200
(B732)
More flights by this aircraft type
Origin: KSFO San Francisco Intl
United States
Destination: KLGB Long Beach
United States
More flights between these airports :: More routes between these airports
Route: +OFFSH1 SXC
File this flight plan on PilotEdge
Remarks:
Altitude:
(Current/Filed)
31,000ft
Speed:
(Current/Filed)
431kts
Departed: 24-Mar-18 03:25 PM
Arrived: 24-Mar-18 04:34 PM
Distance/Time
Traveled:
307nm/1:09
Distance/Time
To Go:
Arrived

Flight Plot

Page will automatically refresh every two minutes.


Map Options




Map Legend


Flown Route
Filed Route
Departure Airport
Arrival Airport
Navaid (VOR, NDB)
Fix

Horizontal Profiles

Position Reports

Time Latitude Longitude Heading Altitude Ground
Speed
24-Mar-18 15:07 37.627658 -122.384174 294 22ft 0kts
24-Mar-18 15:08 37.627658 -122.384174 294 22ft 0kts
24-Mar-18 15:09 37.627658 -122.384174 294 22ft 0kts
24-Mar-18 15:10 37.627658 -122.384174 294 22ft 0kts
24-Mar-18 15:11 37.627658 -122.384174 294 22ft 0kts
24-Mar-18 15:12 37.627658 -122.384174 294 22ft 0kts
24-Mar-18 15:13 37.627658 -122.384174 294 22ft 0kts
24-Mar-18 15:14 37.627658 -122.384174 294 22ft 0kts
24-Mar-18 15:15 37.627658 -122.384174 294 22ft 0kts
24-Mar-18 15:16 37.627658 -122.384174 294 22ft 0kts
24-Mar-18 15:17 37.627658 -122.384174 294 22ft 0kts
24-Mar-18 15:18 37.627679 -122.384230 294 22ft 2kts
24-Mar-18 15:19 37.627206 -122.385178 193 22ft 10kts
24-Mar-18 15:20 37.623859 -122.378063 119 22ft 29kts
24-Mar-18 15:21 37.619924 -122.368707 118 22ft 30kts
24-Mar-18 15:22 37.616097 -122.359532 119 22ft 23kts
24-Mar-18 15:23 37.614458 -122.356747 200 22ft 0kts
24-Mar-18 15:24 37.615198 -122.361199 297 22ft 72kts
24-Mar-18 15:25 37.636704 -122.407136 291 1754ft 191kts
24-Mar-18 15:26 37.659788 -122.471620 294 3713ft 271kts
24-Mar-18 15:27 37.632958 -122.551396 217 7828ft 261kts
24-Mar-18 15:28 37.573609 -122.603597 216 10757ft 275kts
24-Mar-18 15:29 37.507136 -122.664004 216 12873ft 312kts
24-Mar-18 15:30 37.427438 -122.690559 174 15499ft 327kts
24-Mar-18 15:31 37.337145 -122.668356 173 17677ft 338kts
24-Mar-18 15:32 37.244853 -122.644338 174 19471ft 346kts
24-Mar-18 15:33 37.149701 -122.619745 175 21039ft 354kts
24-Mar-18 15:34 37.051988 -122.594546 176 22193ft 368kts
24-Mar-18 15:35 36.950155 -122.568420 176 23162ft 386kts
24-Mar-18 15:36 36.846375 -122.541513 177 24386ft 392kts
24-Mar-18 15:37 36.739144 -122.513779 177 25467ft 398kts
24-Mar-18 15:38 36.630332 -122.485710 177 26430ft 404kts
24-Mar-18 15:39 36.519721 -122.457258 178 27296ft 409kts
24-Mar-18 15:40 36.411636 -122.409473 145 28017ft 454kts
24-Mar-18 15:41 36.327853 -122.294609 139 28646ft 466kts
24-Mar-18 15:42 36.243757 -122.172547 139 29164ft 471kts
24-Mar-18 15:43 36.159261 -122.049852 139 29980ft 467kts
24-Mar-18 15:44 36.074766 -121.927647 139 30520ft 469kts
24-Mar-18 15:45 35.990126 -121.805657 139 31152ft 468kts
24-Mar-18 15:46 35.904263 -121.682407 139 31198ft 482kts
24-Mar-18 15:47 35.817486 -121.558239 139 31188ft 494kts
24-Mar-18 15:48 35.726808 -121.428960 139 31161ft 505kts
24-Mar-18 15:49 35.638980 -121.304263 139 31144ft 505kts
24-Mar-18 15:50 35.550096 -121.179238 140 31151ft 487kts
24-Mar-18 15:51 35.457124 -121.063195 154 31173ft 467kts
24-Mar-18 15:52 35.350026 -120.974927 156 31173ft 465kts
24-Mar-18 15:53 35.244461 -120.890595 156 31174ft 466kts
24-Mar-18 15:54 35.136079 -120.804793 156 31175ft 466kts
24-Mar-18 15:55 35.027660 -120.719899 156 31176ft 467kts
24-Mar-18 15:56 34.918714 -120.634995 155 31188ft 467kts
24-Mar-18 15:57 34.811384 -120.551486 154 31193ft 468kts
24-Mar-18 15:58 34.702107 -120.466767 154 31190ft 469kts
24-Mar-18 15:59 34.614281 -120.346669 128 30611ft 493kts
24-Mar-18 16:00 34.547890 -120.236176 132 28989ft 463kts
24-Mar-18 16:01 34.471691 -120.112540 132 27446ft 455kts
24-Mar-18 16:02 34.396484 -119.991384 132 26548ft 449kts
24-Mar-18 16:03 34.321629 -119.871372 132 25894ft 444kts
24-Mar-18 16:04 34.247745 -119.753297 132 25257ft 437kts
24-Mar-18 16:05 34.175270 -119.638079 131 24127ft 427kts
24-Mar-18 16:06 34.103440 -119.524153 131 23753ft 423kts
24-Mar-18 16:07 34.027957 -119.419019 138 21529ft 409kts
24-Mar-18 16:08 33.954280 -119.323145 136 19451ft 397kts
24-Mar-18 16:09 33.890175 -119.237537 136 17586ft 385kts
24-Mar-18 16:10 33.820306 -119.144168 135 15547ft 372kts
24-Mar-18 16:11 33.752516 -119.053785 135 13567ft 359kts
24-Mar-18 16:12 33.686917 -118.966516 134 11767ft 344kts
24-Mar-18 16:13 33.625235 -118.884624 135 11002ft 315kts
24-Mar-18 16:14 33.570398 -118.805076 125 11006ft 312kts
24-Mar-18 16:15 33.530208 -118.729533 124 11001ft 311kts
24-Mar-18 16:16 33.519490 -118.632765 81 10270ft 296kts
24-Mar-18 16:17 33.528231 -118.544149 81 8371ft 274kts
24-Mar-18 16:18 33.535946 -118.463598 81 7966ft 218kts
24-Mar-18 16:19 33.543424 -118.391715 81 6759ft 215kts
24-Mar-18 16:20 33.551538 -118.323598 82 5665ft 210kts
24-Mar-18 16:21 33.558618 -118.271043 81 5005ft 207kts
24-Mar-18 16:22 33.568252 -118.205754 81 4995ft 199kts
24-Mar-18 16:23 33.578592 -118.140912 81 4997ft 204kts
24-Mar-18 16:24 33.589434 -118.076524 81 4994ft 208kts
24-Mar-18 16:25 33.601148 -118.008897 81 3881ft 214kts
24-Mar-18 16:26 33.623784 -117.950371 41 2985ft 200kts
24-Mar-18 16:27 33.666540 -117.945124 297 3017ft 190kts
24-Mar-18 16:28 33.693338 -118.000839 310 2069ft 204kts
24-Mar-18 16:29 33.727254 -118.041864 310 2059ft 150kts
24-Mar-18 16:30 33.754668 -118.075041 310 1679ft 147kts
24-Mar-18 16:31 33.783209 -118.109493 310 859ft 140kts
24-Mar-18 16:32 33.809497 -118.141265 311 136ft 135kts
24-Mar-18 16:33 33.821638 -118.154702 86 69ft 12kts
24-Mar-18 16:34 33.821614 -118.148583 90 69ft 22kts
24-Mar-18 16:35 33.819240 -118.146968 180 69ft 6kts
24-Mar-18 16:36 33.818643 -118.145771 90 69ft 0kts

Navigation Log

Ident Type
1. KSFO Airport
2. MCKEY Fix
3. DAISY Fix
4. SXC Navaid
5. KLGB Airport